sensor_id;sensor_type;location;lat;lon;timestamp;temperature;humidity
18894;DHT22;9579;49.488;8.226;2023-07-02T00:00:08;19.60;99.90
18894;DHT22;9579;49.488;8.226;2023-07-02T00:02:56;19.50;99.90
18894;DHT22;9579;49.488;8.226;2023-07-02T00:05:43;19.40;99.90
18894;DHT22;9579;49.488;8.226;2023-07-02T00:08:30;19.30;99.90
18894;DHT22;9579;49.488;8.226;2023-07-02T00:11:17;19.20;99.90
18894;DHT22;9579;49.488;8.226;2023-07-02T00:14:04;19.10;99.90
18894;DHT22;9579;49.488;8.226;2023-07-02T00:16:51;19.10;99.90
18894;DHT22;9579;49.488;8.226;2023-07-02T00:19:40;19.00;99.90
18894;DHT22;9579;49.488;8.226;2023-07-02T00:22:27;18.90;99.90
18894;DHT22;9579;49.488;8.226;2023-07-02T00:25:15;18.80;99.90
18894;DHT22;9579;49.488;8.226;2023-07-02T00:28:02;18.80;99.90
18894;DHT22;9579;49.488;8.226;2023-07-02T00:30:49;18.80;99.90
18894;DHT22;9579;49.488;8.226;2023-07-02T00:33:36;18.70;99.90
18894;DHT22;9579;49.488;8.226;2023-07-02T00:36:25;18.70;99.90
18894;DHT22;9579;49.488;8.226;2023-07-02T00:39:12;18.80;99.90
18894;DHT22;9579;49.488;8.226;2023-07-02T00:42:04;18.70;99.90
18894;DHT22;9579;49.488;8.226;2023-07-02T00:44:51;18.70;99.90
18894;DHT22;9579;49.488;8.226;2023-07-02T00:47:38;18.70;99.90
18894;DHT22;9579;49.488;8.226;2023-07-02T00:50:26;18.70;99.90
18894;DHT22;9579;49.488;8.226;2023-07-02T00:53:15;18.60;99.90
18894;DHT22;9579;49.488;8.226;2023-07-02T00:56:02;18.60;99.90
18894;DHT22;9579;49.488;8.226;2023-07-02T00:58:51;18.60;99.90
18894;DHT22;9579;49.488;8.226;2023-07-02T01:01:38;18.60;99.90
18894;DHT22;9579;49.488;8.226;2023-07-02T01:04:25;18.50;99.90
18894;DHT22;9579;49.488;8.226;2023-07-02T01:07:13;18.40;99.90
18894;DHT22;9579;49.488;8.226;2023-07-02T01:10:01;18.40;99.90
18894;DHT22;9579;49.488;8.226;2023-07-02T01:12:51;18.40;99.90
18894;DHT22;9579;49.488;8.226;2023-07-02T01:15:39;18.30;99.90
18894;DHT22;9579;49.488;8.226;2023-07-02T01:18:26;18.30;99.90
18894;DHT22;9579;49.488;8.226;2023-07-02T01:21:15;18.30;99.90
18894;DHT22;9579;49.488;8.226;2023-07-02T01:24:02;18.30;99.90
18894;DHT22;9579;49.488;8.226;2023-07-02T01:26:49;18.20;99.90
18894;DHT22;9579;49.488;8.226;2023-07-02T01:29:36;18.10;99.90
18894;DHT22;9579;49.488;8.226;2023-07-02T01:32:23;18.10;99.90
18894;DHT22;9579;49.488;8.226;2023-07-02T01:35:10;18.00;99.90
18894;DHT22;9579;49.488;8.226;2023-07-02T01:37:59;17.90;99.90
18894;DHT22;9579;49.488;8.226;2023-07-02T01:40:46;17.90;99.90
18894;DHT22;9579;49.488;8.226;2023-07-02T01:43:33;17.80;99.90
18894;DHT22;9579;49.488;8.226;2023-07-02T01:46:20;17.80;99.90
18894;DHT22;9579;49.488;8.226;2023-07-02T01:49:07;17.80;99.90
18894;DHT22;9579;49.488;8.226;2023-07-02T01:51:55;17.80;99.90
18894;DHT22;9579;49.488;8.226;2023-07-02T01:54:45;17.80;99.90
18894;DHT22;9579;49.488;8.226;2023-07-02T01:57:32;17.90;99.90
18894;DHT22;9579;49.488;8.226;2023-07-02T02:00:19;17.90;99.90
18894;DHT22;9579;49.488;8.226;2023-07-02T02:03:06;17.90;99.90
18894;DHT22;9579;49.488;8.226;2023-07-02T02:05:53;17.90;99.90
18894;DHT22;9579;49.488;8.226;2023-07-02T02:08:40;17.90;99.90
18894;DHT22;9579;49.488;8.226;2023-07-02T02:11:28;17.90;99.90
18894;DHT22;9579;49.488;8.226;2023-07-02T02:14:15;17.90;99.90
18894;DHT22;9579;49.488;8.226;2023-07-02T02:17:03;17.90;99.90
18894;DHT22;9579;49.488;8.226;2023-07-02T02:19:50;17.90;99.90
18894;DHT22;9579;49.488;8.226;2023-07-02T02:22:37;18.00;99.90
18894;DHT22;9579;49.488;8.226;2023-07-02T02:25:24;18.20;99.90
18894;DHT22;9579;49.488;8.226;2023-07-02T02:28:13;18.10;99.90
18894;DHT22;9579;49.488;8.226;2023-07-02T02:31:00;18.20;99.90
18894;DHT22;9579;49.488;8.226;2023-07-02T02:33:47;18.20;99.90
18894;DHT22;9579;49.488;8.226;2023-07-02T02:36:34;18.30;99.90
18894;DHT22;9579;49.488;8.226;2023-07-02T02:39:21;18.30;99.90
18894;DHT22;9579;49.488;8.226;2023-07-02T02:42:08;18.20;99.90
18894;DHT22;9579;49.488;8.226;2023-07-02T02:44:56;18.20;99.90
18894;DHT22;9579;49.488;8.226;2023-07-02T02:47:45;18.10;99.90
18894;DHT22;9579;49.488;8.226;2023-07-02T02:50:32;18.10;99.90
18894;DHT22;9579;49.488;8.226;2023-07-02T02:53:19;18.10;99.90
18894;DHT22;9579;49.488;8.226;2023-07-02T02:56:06;18.10;99.90
18894;DHT22;9579;49.488;8.226;2023-07-02T02:58:53;18.10;99.90
18894;DHT22;9579;49.488;8.226;2023-07-02T03:01:42;18.20;99.90
18894;DHT22;9579;49.488;8.226;2023-07-02T03:04:29;18.20;99.90
18894;DHT22;9579;49.488;8.226;2023-07-02T03:07:16;18.20;99.90
18894;DHT22;9579;49.488;8.226;2023-07-02T03:10:04;18.20;99.90
18894;DHT22;9579;49.488;8.226;2023-07-02T03:12:51;18.20;99.90
18894;DHT22;9579;49.488;8.226;2023-07-02T03:15:38;18.20;99.90
18894;DHT22;9579;49.488;8.226;2023-07-02T03:18:26;18.10;99.90
18894;DHT22;9579;49.488;8.226;2023-07-02T03:21:14;18.20;99.90
18894;DHT22;9579;49.488;8.226;2023-07-02T03:24:01;18.10;99.90
18894;DHT22;9579;49.488;8.226;2023-07-02T03:26:48;18.10;99.90
18894;DHT22;9579;49.488;8.226;2023-07-02T03:29:35;18.10;99.90
18894;DHT22;9579;49.488;8.226;2023-07-02T03:32:23;18.10;99.90
18894;DHT22;9579;49.488;8.226;2023-07-02T03:35:12;18.10;99.90
18894;DHT22;9579;49.488;8.226;2023-07-02T03:37:59;18.00;99.90
18894;DHT22;9579;49.488;8.226;2023-07-02T03:40:46;18.10;99.90
18894;DHT22;9579;49.488;8.226;2023-07-02T03:43:33;18.00;99.90
18894;DHT22;9579;49.488;8.226;2023-07-02T03:46:21;17.90;99.90
18894;DHT22;9579;49.488;8.226;2023-07-02T03:49:08;18.00;99.90
18894;DHT22;9579;49.488;8.226;2023-07-02T03:51:56;18.00;99.90
18894;DHT22;9579;49.488;8.226;2023-07-02T03:54:43;18.20;99.90
18894;DHT22;9579;49.488;8.226;2023-07-02T03:57:30;18.20;99.90
18894;DHT22;9579;49.488;8.226;2023-07-02T04:00:17;18.20;99.90
18894;DHT22;9579;49.488;8.226;2023-07-02T04:03:04;18.20;99.90
18894;DHT22;9579;49.488;8.226;2023-07-02T04:05:51;18.20;99.90
18894;DHT22;9579;49.488;8.226;2023-07-02T04:08:40;18.20;99.90
18894;DHT22;9579;49.488;8.226;2023-07-02T04:11:27;18.20;99.90
18894;DHT22;9579;49.488;8.226;2023-07-02T04:14:14;18.20;99.90
18894;DHT22;9579;49.488;8.226;2023-07-02T04:17:01;18.10;99.90
18894;DHT22;9579;49.488;8.226;2023-07-02T04:19:49;18.20;99.90
18894;DHT22;9579;49.488;8.226;2023-07-02T04:22:36;18.20;99.90
18894;DHT22;9579;49.488;8.226;2023-07-02T04:25:25;18.20;99.90
18894;DHT22;9579;49.488;8.226;2023-07-02T04:28:12;18.20;99.80
18894;DHT22;9579;49.488;8.226;2023-07-02T04:30:59;18.10;99.90
18894;DHT22;9579;49.488;8.226;2023-07-02T04:33:46;18.10;99.90
18894;DHT22;9579;49.488;8.226;2023-07-02T04:36:33;18.20;99.90
18894;DHT22;9579;49.488;8.226;2023-07-02T04:39:20;18.10;99.90
18894;DHT22;9579;49.488;8.226;2023-07-02T04:42:08;18.00;99.90
18894;DHT22;9579;49.488;8.226;2023-07-02T04:45:00;18.00;99.90
18894;DHT22;9579;49.488;8.226;2023-07-02T04:47:48;18.20;99.90
18894;DHT22;9579;49.488;8.226;2023-07-02T04:50:36;18.20;99.90
18894;DHT22;9579;49.488;8.226;2023-07-02T04:53:23;18.20;99.90
18894;DHT22;9579;49.488;8.226;2023-07-02T04:56:10;18.20;99.90
18894;DHT22;9579;49.488;8.226;2023-07-02T04:58:58;18.20;99.90
18894;DHT22;9579;49.488;8.226;2023-07-02T05:01:47;18.30;99.90
18894;DHT22;9579;49.488;8.226;2023-07-02T05:04:34;18.30;99.90
18894;DHT22;9579;49.488;8.226;2023-07-02T05:07:23;18.30;99.90
18894;DHT22;9579;49.488;8.226;2023-07-02T05:10:10;18.20;99.90
18894;DHT22;9579;49.488;8.226;2023-07-02T05:12:57;18.20;99.90
18894;DHT22;9579;49.488;8.226;2023-07-02T05:15:47;18.30;99.90
18894;DHT22;9579;49.488;8.226;2023-07-02T05:18:34;18.20;99.90
18894;DHT22;9579;49.488;8.226;2023-07-02T05:21:22;18.20;99.90
18894;DHT22;9579;49.488;8.226;2023-07-02T05:24:09;18.20;99.90
18894;DHT22;9579;49.488;8.226;2023-07-02T05:26:56;18.50;99.90
18894;DHT22;9579;49.488;8.226;2023-07-02T05:29:43;18.40;99.90
18894;DHT22;9579;49.488;8.226;2023-07-02T05:32:33;18.50;99.90
18894;DHT22;9579;49.488;8.226;2023-07-02T05:35:20;18.40;99.90
18894;DHT22;9579;49.488;8.226;2023-07-02T05:38:07;18.50;99.90
18894;DHT22;9579;49.488;8.226;2023-07-02T05:40:54;18.50;99.60
18894;DHT22;9579;49.488;8.226;2023-07-02T05:43:41;18.70;99.50
18894;DHT22;9579;49.488;8.226;2023-07-02T05:46:28;19.10;99.00
18894;DHT22;9579;49.488;8.226;2023-07-02T05:49:17;19.00;98.90
18894;DHT22;9579;49.488;8.226;2023-07-02T05:52:04;19.20;98.80
18894;DHT22;9579;49.488;8.226;2023-07-02T05:54:51;19.00;98.40
18894;DHT22;9579;49.488;8.226;2023-07-02T05:57:39;20.20;99.20
18894;DHT22;9579;49.488;8.226;2023-07-02T06:00:26;19.10;98.40
18894;DHT22;9579;49.488;8.226;2023-07-02T06:03:13;19.20;98.00
18894;DHT22;9579;49.488;8.226;2023-07-02T06:06:06;19.60;97.90
18894;DHT22;9579;49.488;8.226;2023-07-02T06:08:53;19.70;97.40
18894;DHT22;9579;49.488;8.226;2023-07-02T06:11:40;19.80;97.10
18894;DHT22;9579;49.488;8.226;2023-07-02T06:14:27;20.00;96.30
18894;DHT22;9579;49.488;8.226;2023-07-02T06:17:14;19.90;96.10
18894;DHT22;9579;49.488;8.226;2023-07-02T06:20:02;20.40;96.30
18894;DHT22;9579;49.488;8.226;2023-07-02T06:22:51;19.80;96.20
18894;DHT22;9579;49.488;8.226;2023-07-02T06:25:38;20.70;96.40
18894;DHT22;9579;49.488;8.226;2023-07-02T06:28:25;20.10;95.90
18894;DHT22;9579;49.488;8.226;2023-07-02T06:31:13;20.10;95.50
18894;DHT22;9579;49.488;8.226;2023-07-02T06:34:00;20.10;95.00
18894;DHT22;9579;49.488;8.226;2023-07-02T06:36:48;20.00;94.70
18894;DHT22;9579;49.488;8.226;2023-07-02T06:39:36;20.30;95.10
18894;DHT22;9579;49.488;8.226;2023-07-02T06:42:24;20.50;94.60
18894;DHT22;9579;49.488;8.226;2023-07-02T06:45:11;20.60;93.90
18894;DHT22;9579;49.488;8.226;2023-07-02T06:47:58;20.80;93.80
18894;DHT22;9579;49.488;8.226;2023-07-02T06:50:45;20.80;93.80
18894;DHT22;9579;49.488;8.226;2023-07-02T06:53:32;20.80;93.70
18894;DHT22;9579;49.488;8.226;2023-07-02T06:56:20;20.80;93.00
18894;DHT22;9579;49.488;8.226;2023-07-02T06:59:07;21.00;93.10
18894;DHT22;9579;49.488;8.226;2023-07-02T07:01:54;20.90;92.90
18894;DHT22;9579;49.488;8.226;2023-07-02T07:04:42;21.40;92.60
18894;DHT22;9579;49.488;8.226;2023-07-02T07:07:30;21.20;92.50
18894;DHT22;9579;49.488;8.226;2023-07-02T07:10:17;21.20;91.90
18894;DHT22;9579;49.488;8.226;2023-07-02T07:13:10;21.30;92.10
18894;DHT22;9579;49.488;8.226;2023-07-02T07:15:57;21.70;91.70
18894;DHT22;9579;49.488;8.226;2023-07-02T07:18:45;21.60;91.40
18894;DHT22;9579;49.488;8.226;2023-07-02T07:21:33;21.70;91.10
18894;DHT22;9579;49.488;8.226;2023-07-02T07:24:21;21.80;90.50
18894;DHT22;9579;49.488;8.226;2023-07-02T07:27:08;21.90;91.10
18894;DHT22;9579;49.488;8.226;2023-07-02T07:29:56;22.10;90.90
18894;DHT22;9579;49.488;8.226;2023-07-02T07:32:43;22.30;91.00
18894;DHT22;9579;49.488;8.226;2023-07-02T07:35:30;22.50;90.60
18894;DHT22;9579;49.488;8.226;2023-07-02T07:38:17;22.60;90.00
18894;DHT22;9579;49.488;8.226;2023-07-02T07:41:04;22.50;88.40
18894;DHT22;9579;49.488;8.226;2023-07-02T07:43:51;22.40;87.10
18894;DHT22;9579;49.488;8.226;2023-07-02T07:46:40;22.50;88.30
18894;DHT22;9579;49.488;8.226;2023-07-02T07:49:27;22.60;87.80
18894;DHT22;9579;49.488;8.226;2023-07-02T07:52:14;22.70;86.90
18894;DHT22;9579;49.488;8.226;2023-07-02T07:55:01;22.80;85.70
18894;DHT22;9579;49.488;8.226;2023-07-02T07:57:48;22.90;83.70
18894;DHT22;9579;49.488;8.226;2023-07-02T08:00:35;23.00;86.40
18894;DHT22;9579;49.488;8.226;2023-07-02T08:03:24;22.90;86.50
18894;DHT22;9579;49.488;8.226;2023-07-02T08:06:11;22.70;86.00
18894;DHT22;9579;49.488;8.226;2023-07-02T08:08:58;22.30;87.00
18894;DHT22;9579;49.488;8.226;2023-07-02T08:11:46;22.30;87.10
18894;DHT22;9579;49.488;8.226;2023-07-02T08:14:33;22.70;86.80
18894;DHT22;9579;49.488;8.226;2023-07-02T08:17:21;22.70;86.50
18894;DHT22;9579;49.488;8.226;2023-07-02T08:20:11;22.80;85.40
18894;DHT22;9579;49.488;8.226;2023-07-02T08:22:58;22.90;86.10
18894;DHT22;9579;49.488;8.226;2023-07-02T08:25:45;23.30;86.40
18894;DHT22;9579;49.488;8.226;2023-07-02T08:28:32;23.70;84.50
18894;DHT22;9579;49.488;8.226;2023-07-02T08:31:19;23.50;84.30
18894;DHT22;9579;49.488;8.226;2023-07-02T08:34:06;23.40;85.00
18894;DHT22;9579;49.488;8.226;2023-07-02T08:36:54;23.30;85.80
18894;DHT22;9579;49.488;8.226;2023-07-02T08:39:41;23.50;85.10
18894;DHT22;9579;49.488;8.226;2023-07-02T08:42:28;23.40;82.70
18894;DHT22;9579;49.488;8.226;2023-07-02T08:45:16;23.60;84.10
18894;DHT22;9579;49.488;8.226;2023-07-02T08:48:04;23.80;83.20
18894;DHT22;9579;49.488;8.226;2023-07-02T08:50:52;24.10;82.20
18894;DHT22;9579;49.488;8.226;2023-07-02T08:53:40;24.40;80.80
18894;DHT22;9579;49.488;8.226;2023-07-02T08:56:27;24.50;79.00
18894;DHT22;9579;49.488;8.226;2023-07-02T08:59:14;24.50;80.90
18894;DHT22;9579;49.488;8.226;2023-07-02T09:02:01;24.80;79.10
18894;DHT22;9579;49.488;8.226;2023-07-02T09:04:58;24.60;79.10
18894;DHT22;9579;49.488;8.226;2023-07-02T09:07:46;24.10;79.90
18894;DHT22;9579;49.488;8.226;2023-07-02T09:10:34;24.00;78.90
18894;DHT22;9579;49.488;8.226;2023-07-02T09:13:21;23.90;78.70
18894;DHT22;9579;49.488;8.226;2023-07-02T09:16:08;24.20;76.80
18894;DHT22;9579;49.488;8.226;2023-07-02T09:18:59;24.00;79.10
18894;DHT22;9579;49.488;8.226;2023-07-02T09:21:48;23.70;79.20
18894;DHT22;9579;49.488;8.226;2023-07-02T09:24:35;23.80;79.80
18894;DHT22;9579;49.488;8.226;2023-07-02T09:27:33;23.80;79.80
18894;DHT22;9579;49.488;8.226;2023-07-02T09:30:20;24.10;79.80
18894;DHT22;9579;49.488;8.226;2023-07-02T09:33:07;23.90;79.10
18894;DHT22;9579;49.488;8.226;2023-07-02T09:36:26;24.10;76.70
18894;DHT22;9579;49.488;8.226;2023-07-02T09:39:19;24.30;75.10
18894;DHT22;9579;49.488;8.226;2023-07-02T09:42:08;24.60;74.60
18894;DHT22;9579;49.488;8.226;2023-07-02T09:45:00;24.90;74.50
18894;DHT22;9579;49.488;8.226;2023-07-02T09:47:52;25.20;73.40
18894;DHT22;9579;49.488;8.226;2023-07-02T09:50:50;25.00;73.60
18894;DHT22;9579;49.488;8.226;2023-07-02T09:53:37;24.60;73.20
18894;DHT22;9579;49.488;8.226;2023-07-02T09:56:26;24.50;74.50
18894;DHT22;9579;49.488;8.226;2023-07-02T09:59:15;24.70;72.90
18894;DHT22;9579;49.488;8.226;2023-07-02T10:02:05;24.90;73.50
18894;DHT22;9579;49.488;8.226;2023-07-02T10:04:52;25.10;72.30
18894;DHT22;9579;49.488;8.226;2023-07-02T10:07:40;25.00;73.00
18894;DHT22;9579;49.488;8.226;2023-07-02T10:10:28;24.90;72.90
18894;DHT22;9579;49.488;8.226;2023-07-02T10:13:26;24.70;72.30
18894;DHT22;9579;49.488;8.226;2023-07-02T10:16:13;24.80;71.60
18894;DHT22;9579;49.488;8.226;2023-07-02T10:19:12;25.00;70.00
18894;DHT22;9579;49.488;8.226;2023-07-02T10:22:02;25.30;69.60
18894;DHT22;9579;49.488;8.226;2023-07-02T10:24:55;25.50;70.50
18894;DHT22;9579;49.488;8.226;2023-07-02T10:27:45;25.70;70.20
18894;DHT22;9579;49.488;8.226;2023-07-02T10:30:33;25.40;70.50
18894;DHT22;9579;49.488;8.226;2023-07-02T10:33:20;25.30;68.10
18894;DHT22;9579;49.488;8.226;2023-07-02T10:36:17;25.70;69.40
18894;DHT22;9579;49.488;8.226;2023-07-02T10:39:04;25.90;68.30
18894;DHT22;9579;49.488;8.226;2023-07-02T10:41:52;25.50;71.50
18894;DHT22;9579;49.488;8.226;2023-07-02T10:44:47;25.20;71.00
18894;DHT22;9579;49.488;8.226;2023-07-02T10:47:39;25.30;70.90
18894;DHT22;9579;49.488;8.226;2023-07-02T10:50:26;25.70;70.80
18894;DHT22;9579;49.488;8.226;2023-07-02T10:53:19;26.10;69.00
18894;DHT22;9579;49.488;8.226;2023-07-02T10:56:06;26.30;67.40
18894;DHT22;9579;49.488;8.226;2023-07-02T10:58:53;26.50;68.70
18894;DHT22;9579;49.488;8.226;2023-07-02T11:01:40;26.20;67.00
18894;DHT22;9579;49.488;8.226;2023-07-02T11:04:27;25.70;67.60
18894;DHT22;9579;49.488;8.226;2023-07-02T11:07:15;25.20;70.00
18894;DHT22;9579;49.488;8.226;2023-07-02T11:10:17;25.10;71.40
18894;DHT22;9579;49.488;8.226;2023-07-02T11:13:11;25.50;69.20
18894;DHT22;9579;49.488;8.226;2023-07-02T11:15:58;25.80;68.50
18894;DHT22;9579;49.488;8.226;2023-07-02T11:18:47;26.30;65.30
18894;DHT22;9579;49.488;8.226;2023-07-02T11:21:34;26.20;66.90
18894;DHT22;9579;49.488;8.226;2023-07-02T11:24:28;26.10;65.90
18894;DHT22;9579;49.488;8.226;2023-07-02T11:27:22;25.80;66.80
18894;DHT22;9579;49.488;8.226;2023-07-02T11:30:10;25.80;65.30
18894;DHT22;9579;49.488;8.226;2023-07-02T11:32:57;25.90;67.20
18894;DHT22;9579;49.488;8.226;2023-07-02T11:35:44;26.00;66.90
18894;DHT22;9579;49.488;8.226;2023-07-02T11:38:33;26.30;66.30
18894;DHT22;9579;49.488;8.226;2023-07-02T11:41:21;26.30;66.60
18894;DHT22;9579;49.488;8.226;2023-07-02T11:44:10;26.50;65.40
18894;DHT22;9579;49.488;8.226;2023-07-02T11:46:57;26.40;63.40
18894;DHT22;9579;49.488;8.226;2023-07-02T11:49:44;26.90;64.30
18894;DHT22;9579;49.488;8.226;2023-07-02T11:52:31;27.30;60.70
18894;DHT22;9579;49.488;8.226;2023-07-02T11:55:18;27.30;61.30
18894;DHT22;9579;49.488;8.226;2023-07-02T11:58:12;26.90;61.50
18894;DHT22;9579;49.488;8.226;2023-07-02T12:01:19;26.30;64.00
18894;DHT22;9579;49.488;8.226;2023-07-02T12:04:17;26.20;64.50
18894;DHT22;9579;49.488;8.226;2023-07-02T12:07:15;26.40;64.00
18894;DHT22;9579;49.488;8.226;2023-07-02T12:16:39;28.10;60.50
18894;DHT22;9579;49.488;8.226;2023-07-02T12:19:47;28.40;59.30
18894;DHT22;9579;49.488;8.226;2023-07-02T12:26:38;27.90;60.00
18894;DHT22;9579;49.488;8.226;2023-07-02T12:30:20;27.40;62.20
18894;DHT22;9579;49.488;8.226;2023-07-02T12:33:46;27.90;60.30
18894;DHT22;9579;49.488;8.226;2023-07-02T12:36:50;28.40;61.00
18894;DHT22;9579;49.488;8.226;2023-07-02T12:39:37;28.60;59.80
18894;DHT22;9579;49.488;8.226;2023-07-02T12:42:24;29.00;58.60
18894;DHT22;9579;49.488;8.226;2023-07-02T12:45:11;29.00;58.70
18894;DHT22;9579;49.488;8.226;2023-07-02T12:47:59;28.70;58.50
18894;DHT22;9579;49.488;8.226;2023-07-02T12:50:55;28.30;59.10
18894;DHT22;9579;49.488;8.226;2023-07-02T12:53:42;28.30;58.70
18894;DHT22;9579;49.488;8.226;2023-07-02T12:56:30;29.10;60.80
18894;DHT22;9579;49.488;8.226;2023-07-02T12:59:17;29.90;58.30
18894;DHT22;9579;49.488;8.226;2023-07-02T13:02:04;30.60;57.60
18894;DHT22;9579;49.488;8.226;2023-07-02T13:04:52;30.80;56.20
18894;DHT22;9579;49.488;8.226;2023-07-02T13:07:40;30.40;56.00
18894;DHT22;9579;49.488;8.226;2023-07-02T13:10:28;29.20;57.60
18894;DHT22;9579;49.488;8.226;2023-07-02T13:13:15;29.00;58.00
18894;DHT22;9579;49.488;8.226;2023-07-02T13:16:03;29.40;58.20
18894;DHT22;9579;49.488;8.226;2023-07-02T13:18:50;29.50;56.50
18894;DHT22;9579;49.488;8.226;2023-07-02T13:21:37;29.50;57.10
18894;DHT22;9579;49.488;8.226;2023-07-02T13:24:32;29.50;57.90
18894;DHT22;9579;49.488;8.226;2023-07-02T13:27:20;29.30;56.60
18894;DHT22;9579;49.488;8.226;2023-07-02T13:30:08;29.20;59.00
18894;DHT22;9579;49.488;8.226;2023-07-02T13:32:55;29.40;58.30
18894;DHT22;9579;49.488;8.226;2023-07-02T13:35:42;29.60;57.70
18894;DHT22;9579;49.488;8.226;2023-07-02T13:38:29;29.60;58.20
18894;DHT22;9579;49.488;8.226;2023-07-02T13:41:18;29.50;57.10
18894;DHT22;9579;49.488;8.226;2023-07-02T13:44:05;29.00;57.60
18894;DHT22;9579;49.488;8.226;2023-07-02T13:46:52;28.70;58.60
18894;DHT22;9579;49.488;8.226;2023-07-02T13:49:39;28.70;59.50
18894;DHT22;9579;49.488;8.226;2023-07-02T13:52:26;29.10;59.70
18894;DHT22;9579;49.488;8.226;2023-07-02T13:55:13;29.50;59.70
18894;DHT22;9579;49.488;8.226;2023-07-02T13:58:02;30.00;57.30
18894;DHT22;9579;49.488;8.226;2023-07-02T14:00:50;30.10;55.90
18894;DHT22;9579;49.488;8.226;2023-07-02T14:03:37;30.20;56.00
18894;DHT22;9579;49.488;8.226;2023-07-02T14:06:24;30.30;55.90
18894;DHT22;9579;49.488;8.226;2023-07-02T14:09:11;30.00;55.60
18894;DHT22;9579;49.488;8.226;2023-07-02T14:12:05;29.30;55.30
18894;DHT22;9579;49.488;8.226;2023-07-02T14:14:53;29.00;55.90
18894;DHT22;9579;49.488;8.226;2023-07-02T14:17:41;29.40;57.50
18894;DHT22;9579;49.488;8.226;2023-07-02T14:20:28;29.60;55.60
18894;DHT22;9579;49.488;8.226;2023-07-02T14:23:15;29.50;56.30
18894;DHT22;9579;49.488;8.226;2023-07-02T14:26:02;29.60;56.00
18894;DHT22;9579;49.488;8.226;2023-07-02T14:28:49;29.50;56.20
18894;DHT22;9579;49.488;8.226;2023-07-02T14:31:36;29.60;57.00
18894;DHT22;9579;49.488;8.226;2023-07-02T14:34:24;29.50;57.10
18894;DHT22;9579;49.488;8.226;2023-07-02T14:37:13;29.30;56.10
18894;DHT22;9579;49.488;8.226;2023-07-02T14:40:00;29.30;58.50
18894;DHT22;9579;49.488;8.226;2023-07-02T14:42:47;29.70;57.20
18894;DHT22;9579;49.488;8.226;2023-07-02T14:45:34;30.10;56.20
18894;DHT22;9579;49.488;8.226;2023-07-02T14:48:21;30.40;55.00
18894;DHT22;9579;49.488;8.226;2023-07-02T14:51:10;30.50;56.00
18894;DHT22;9579;49.488;8.226;2023-07-02T14:53:58;30.40;55.10
18894;DHT22;9579;49.488;8.226;2023-07-02T14:56:47;30.20;56.10
18894;DHT22;9579;49.488;8.226;2023-07-02T14:59:34;30.30;56.40
18894;DHT22;9579;49.488;8.226;2023-07-02T15:02:21;30.20;55.30
18894;DHT22;9579;49.488;8.226;2023-07-02T15:05:09;30.00;56.40
18894;DHT22;9579;49.488;8.226;2023-07-02T15:07:57;30.30;54.60
18894;DHT22;9579;49.488;8.226;2023-07-02T15:10:46;30.00;54.00
18894;DHT22;9579;49.488;8.226;2023-07-02T15:13:34;29.50;54.40
18894;DHT22;9579;49.488;8.226;2023-07-02T15:16:32;29.30;57.30
18894;DHT22;9579;49.488;8.226;2023-07-02T15:19:22;29.60;55.70
18894;DHT22;9579;49.488;8.226;2023-07-02T15:22:11;29.30;56.00
18894;DHT22;9579;49.488;8.226;2023-07-02T15:24:59;29.30;55.70
18894;DHT22;9579;49.488;8.226;2023-07-02T15:27:47;29.00;56.20
18894;DHT22;9579;49.488;8.226;2023-07-02T15:30:37;29.10;56.70
18894;DHT22;9579;49.488;8.226;2023-07-02T15:33:25;29.00;56.80
18894;DHT22;9579;49.488;8.226;2023-07-02T15:36:12;29.20;56.80
18894;DHT22;9579;49.488;8.226;2023-07-02T15:38:59;29.10;56.20
18894;DHT22;9579;49.488;8.226;2023-07-02T15:41:48;29.20;57.10
18894;DHT22;9579;49.488;8.226;2023-07-02T15:44:35;29.40;57.70
18894;DHT22;9579;49.488;8.226;2023-07-02T15:47:22;29.20;56.40
18894;DHT22;9579;49.488;8.226;2023-07-02T15:50:09;28.80;57.10
18894;DHT22;9579;49.488;8.226;2023-07-02T15:52:56;28.40;59.10
18894;DHT22;9579;49.488;8.226;2023-07-02T15:55:43;28.20;59.00
18894;DHT22;9579;49.488;8.226;2023-07-02T15:58:33;28.00;58.30
18894;DHT22;9579;49.488;8.226;2023-07-02T16:01:20;27.80;58.90
18894;DHT22;9579;49.488;8.226;2023-07-02T16:04:07;27.80;60.00
18894;DHT22;9579;49.488;8.226;2023-07-02T16:06:54;28.00;59.30
18894;DHT22;9579;49.488;8.226;2023-07-02T16:09:45;28.10;59.70
18894;DHT22;9579;49.488;8.226;2023-07-02T16:12:33;28.10;60.20
18894;DHT22;9579;49.488;8.226;2023-07-02T16:15:42;27.80;58.10
18894;DHT22;9579;49.488;8.226;2023-07-02T16:18:38;27.50;58.60
18894;DHT22;9579;49.488;8.226;2023-07-02T16:21:31;27.40;59.60
18894;DHT22;9579;49.488;8.226;2023-07-02T16:24:23;27.20;58.20
18894;DHT22;9579;49.488;8.226;2023-07-02T16:27:20;27.10;58.70
18894;DHT22;9579;49.488;8.226;2023-07-02T16:30:12;27.10;59.20
18894;DHT22;9579;49.488;8.226;2023-07-02T16:33:04;27.00;58.80
18894;DHT22;9579;49.488;8.226;2023-07-02T16:35:51;26.80;59.30
18894;DHT22;9579;49.488;8.226;2023-07-02T16:38:38;26.70;60.80
18894;DHT22;9579;49.488;8.226;2023-07-02T16:41:25;26.90;60.70
18894;DHT22;9579;49.488;8.226;2023-07-02T16:44:16;27.00;60.70
18894;DHT22;9579;49.488;8.226;2023-07-02T16:47:04;27.10;60.20
18894;DHT22;9579;49.488;8.226;2023-07-02T16:49:53;27.00;59.40
18894;DHT22;9579;49.488;8.226;2023-07-02T16:52:40;27.00;60.00
18894;DHT22;9579;49.488;8.226;2023-07-02T16:55:27;27.00;59.50
18894;DHT22;9579;49.488;8.226;2023-07-02T16:58:15;26.90;59.60
18894;DHT22;9579;49.488;8.226;2023-07-02T17:01:04;26.80;59.70
18894;DHT22;9579;49.488;8.226;2023-07-02T17:03:51;26.80;59.70
18894;DHT22;9579;49.488;8.226;2023-07-02T17:06:41;26.80;59.20
18894;DHT22;9579;49.488;8.226;2023-07-02T17:09:30;26.70;59.30
18894;DHT22;9579;49.488;8.226;2023-07-02T17:12:19;26.60;59.60
18894;DHT22;9579;49.488;8.226;2023-07-02T17:15:07;26.60;60.40
18894;DHT22;9579;49.488;8.226;2023-07-02T17:17:54;26.60;60.00
18894;DHT22;9579;49.488;8.226;2023-07-02T17:20:41;26.50;61.00
18894;DHT22;9579;49.488;8.226;2023-07-02T17:23:29;26.40;60.20
18894;DHT22;9579;49.488;8.226;2023-07-02T17:26:16;26.40;60.80
18894;DHT22;9579;49.488;8.226;2023-07-02T17:29:05;26.40;62.60
18894;DHT22;9579;49.488;8.226;2023-07-02T17:31:54;26.50;61.00
18894;DHT22;9579;49.488;8.226;2023-07-02T17:34:41;26.40;61.40
18894;DHT22;9579;49.488;8.226;2023-07-02T17:37:35;26.30;60.70
18894;DHT22;9579;49.488;8.226;2023-07-02T17:40:30;26.20;61.90
18894;DHT22;9579;49.488;8.226;2023-07-02T17:43:20;26.10;61.90
18894;DHT22;9579;49.488;8.226;2023-07-02T17:46:09;26.20;62.80
18894;DHT22;9579;49.488;8.226;2023-07-02T17:49:01;26.00;62.40
18894;DHT22;9579;49.488;8.226;2023-07-02T17:51:54;25.90;62.70
18894;DHT22;9579;49.488;8.226;2023-07-02T17:54:50;25.80;61.70
18894;DHT22;9579;49.488;8.226;2023-07-02T17:57:45;25.80;64.90
18894;DHT22;9579;49.488;8.226;2023-07-02T18:00:39;25.60;62.70
18894;DHT22;9579;49.488;8.226;2023-07-02T18:03:33;25.50;63.10
18894;DHT22;9579;49.488;8.226;2023-07-02T18:06:23;25.30;64.10
18894;DHT22;9579;49.488;8.226;2023-07-02T18:09:13;25.20;65.20
18894;DHT22;9579;49.488;8.226;2023-07-02T18:12:01;25.10;65.40